sensor_id;sensor_type;location;lat;lon;timestamp;temperature;humidity
42097;DHT22;27754;45.414;11.084;2023-07-29T00:01:47;23.10;77.40
42097;DHT22;27754;45.414;11.084;2023-07-29T00:04:16;23.10;77.30
42097;DHT22;27754;45.414;11.084;2023-07-29T00:06:43;23.00;76.70
42097;DHT22;27754;45.414;11.084;2023-07-29T00:09:10;22.90;77.10
42097;DHT22;27754;45.414;11.084;2023-07-29T00:11:37;22.90;76.80
42097;DHT22;27754;45.414;11.084;2023-07-29T00:14:04;22.80;76.60
42097;DHT22;27754;45.414;11.084;2023-07-29T00:16:31;22.60;76.60
42097;DHT22;27754;45.414;11.084;2023-07-29T00:18:58;22.60;77.40
42097;DHT22;27754;45.414;11.084;2023-07-29T00:21:25;22.60;76.90
42097;DHT22;27754;45.414;11.084;2023-07-29T00:23:52;22.60;76.60
42097;DHT22;27754;45.414;11.084;2023-07-29T00:26:20;22.40;76.80
42097;DHT22;27754;45.414;11.084;2023-07-29T00:28:48;22.40;76.60
42097;DHT22;27754;45.414;11.084;2023-07-29T00:31:15;22.40;76.90
42097;DHT22;27754;45.414;11.084;2023-07-29T00:33:42;22.30;76.70
42097;DHT22;27754;45.414;11.084;2023-07-29T00:36:09;22.20;77.00
42097;DHT22;27754;45.414;11.084;2023-07-29T00:38:36;22.30;76.80
42097;DHT22;27754;45.414;11.084;2023-07-29T00:41:03;22.30;76.10
42097;DHT22;27754;45.414;11.084;2023-07-29T00:43:30;22.30;76.10
42097;DHT22;27754;45.414;11.084;2023-07-29T00:45:57;22.40;75.80
42097;DHT22;27754;45.414;11.084;2023-07-29T00:48:25;22.30;76.20
42097;DHT22;27754;45.414;11.084;2023-07-29T00:50:54;22.20;76.30
42097;DHT22;27754;45.414;11.084;2023-07-29T00:53:21;22.20;76.40
42097;DHT22;27754;45.414;11.084;2023-07-29T00:55:49;22.30;76.30
42097;DHT22;27754;45.414;11.084;2023-07-29T00:58:16;22.30;76.40
42097;DHT22;27754;45.414;11.084;2023-07-29T01:00:43;22.30;76.50
42097;DHT22;27754;45.414;11.084;2023-07-29T01:03:11;22.20;76.90
42097;DHT22;27754;45.414;11.084;2023-07-29T01:05:55;22.20;77.20
42097;DHT22;27754;45.414;11.084;2023-07-29T01:08:38;22.20;77.20
42097;DHT22;27754;45.414;11.084;2023-07-29T01:11:59;22.20;77.10
42097;DHT22;27754;45.414;11.084;2023-07-29T01:17:23;22.10;77.10
42097;DHT22;27754;45.414;11.084;2023-07-29T01:22:25;22.00;77.40
42097;DHT22;27754;45.414;11.084;2023-07-29T01:24:52;22.00;77.40
42097;DHT22;27754;45.414;11.084;2023-07-29T01:27:19;22.00;77.70
42097;DHT22;27754;45.414;11.084;2023-07-29T01:29:46;22.00;77.90
42097;DHT22;27754;45.414;11.084;2023-07-29T01:32:46;21.90;78.20
42097;DHT22;27754;45.414;11.084;2023-07-29T01:35:20;21.90;78.10
42097;DHT22;27754;45.414;11.084;2023-07-29T01:38:03;22.00;77.90
42097;DHT22;27754;45.414;11.084;2023-07-29T01:40:32;22.00;77.20
42097;DHT22;27754;45.414;11.084;2023-07-29T01:43:00;21.90;77.10
42097;DHT22;27754;45.414;11.084;2023-07-29T01:45:29;21.90;76.90
42097;DHT22;27754;45.414;11.084;2023-07-29T01:47:58;21.90;77.30
42097;DHT22;27754;45.414;11.084;2023-07-29T01:50:25;21.90;77.30
42097;DHT22;27754;45.414;11.084;2023-07-29T01:52:52;21.80;76.90
42097;DHT22;27754;45.414;11.084;2023-07-29T01:55:19;21.90;76.10
42097;DHT22;27754;45.414;11.084;2023-07-29T01:57:46;21.80;76.50
42097;DHT22;27754;45.414;11.084;2023-07-29T02:00:15;21.80;76.50
42097;DHT22;27754;45.414;11.084;2023-07-29T02:02:44;21.80;76.20
42097;DHT22;27754;45.414;11.084;2023-07-29T02:05:11;21.80;76.20
42097;DHT22;27754;45.414;11.084;2023-07-29T02:07:39;21.70;77.10
42097;DHT22;27754;45.414;11.084;2023-07-29T02:10:06;21.60;78.00
42097;DHT22;27754;45.414;11.084;2023-07-29T02:12:34;21.50;78.40
42097;DHT22;27754;45.414;11.084;2023-07-29T02:15:01;21.40;78.10
42097;DHT22;27754;45.414;11.084;2023-07-29T02:17:30;21.40;77.70
42097;DHT22;27754;45.414;11.084;2023-07-29T02:19:57;21.50;77.20
42097;DHT22;27754;45.414;11.084;2023-07-29T02:22:24;21.50;77.20
42097;DHT22;27754;45.414;11.084;2023-07-29T02:24:51;21.50;77.20
42097;DHT22;27754;45.414;11.084;2023-07-29T02:27:18;21.50;77.40
42097;DHT22;27754;45.414;11.084;2023-07-29T02:29:45;21.50;77.20
42097;DHT22;27754;45.414;11.084;2023-07-29T02:32:12;21.50;77.60
42097;DHT22;27754;45.414;11.084;2023-07-29T02:34:39;21.40;77.60
42097;DHT22;27754;45.414;11.084;2023-07-29T02:37:07;21.50;77.00
42097;DHT22;27754;45.414;11.084;2023-07-29T02:39:34;21.50;76.80
42097;DHT22;27754;45.414;11.084;2023-07-29T02:42:01;21.40;77.00
42097;DHT22;27754;45.414;11.084;2023-07-29T02:44:28;21.50;77.00
42097;DHT22;27754;45.414;11.084;2023-07-29T02:46:55;21.40;77.20
42097;DHT22;27754;45.414;11.084;2023-07-29T02:49:23;21.40;77.30
42097;DHT22;27754;45.414;11.084;2023-07-29T02:51:50;21.40;77.50
42097;DHT22;27754;45.414;11.084;2023-07-29T02:54:17;21.40;77.50
42097;DHT22;27754;45.414;11.084;2023-07-29T02:56:44;21.30;77.70
42097;DHT22;27754;45.414;11.084;2023-07-29T02:59:11;21.40;77.20
42097;DHT22;27754;45.414;11.084;2023-07-29T03:01:38;21.40;77.30
42097;DHT22;27754;45.414;11.084;2023-07-29T03:04:05;21.40;77.50
42097;DHT22;27754;45.414;11.084;2023-07-29T03:06:33;21.40;77.60
42097;DHT22;27754;45.414;11.084;2023-07-29T03:09:01;21.30;78.00
42097;DHT22;27754;45.414;11.084;2023-07-29T03:11:28;21.30;78.40
42097;DHT22;27754;45.414;11.084;2023-07-29T03:13:55;21.20;79.00
42097;DHT22;27754;45.414;11.084;2023-07-29T03:16:22;21.30;79.20
42097;DHT22;27754;45.414;11.084;2023-07-29T03:18:53;21.30;79.10
42097;DHT22;27754;45.414;11.084;2023-07-29T03:21:20;21.30;78.90
42097;DHT22;27754;45.414;11.084;2023-07-29T03:23:47;21.20;79.20
42097;DHT22;27754;45.414;11.084;2023-07-29T03:26:14;21.20;79.20
42097;DHT22;27754;45.414;11.084;2023-07-29T03:28:42;21.20;78.60
42097;DHT22;27754;45.414;11.084;2023-07-29T03:31:10;21.20;78.60
42097;DHT22;27754;45.414;11.084;2023-07-29T03:33:38;21.20;78.40
42097;DHT22;27754;45.414;11.084;2023-07-29T03:36:05;21.20;78.10
42097;DHT22;27754;45.414;11.084;2023-07-29T03:38:32;21.10;78.50
42097;DHT22;27754;45.414;11.084;2023-07-29T03:41:08;21.10;79.40
42097;DHT22;27754;45.414;11.084;2023-07-29T03:43:35;21.10;78.90
42097;DHT22;27754;45.414;11.084;2023-07-29T03:46:02;21.10;78.90
42097;DHT22;27754;45.414;11.084;2023-07-29T03:48:30;21.10;78.90
42097;DHT22;27754;45.414;11.084;2023-07-29T03:50:58;21.20;78.90
42097;DHT22;27754;45.414;11.084;2023-07-29T03:53:25;21.30;78.60
42097;DHT22;27754;45.414;11.084;2023-07-29T03:55:52;21.30;78.40
42097;DHT22;27754;45.414;11.084;2023-07-29T03:58:19;21.30;77.70
42097;DHT22;27754;45.414;11.084;2023-07-29T04:00:46;21.30;77.70
42097;DHT22;27754;45.414;11.084;2023-07-29T04:03:13;21.30;77.30
42097;DHT22;27754;45.414;11.084;2023-07-29T04:05:44;21.30;77.00
42097;DHT22;27754;45.414;11.084;2023-07-29T04:08:11;21.40;77.40
42097;DHT22;27754;45.414;11.084;2023-07-29T04:10:39;21.40;77.50
42097;DHT22;27754;45.414;11.084;2023-07-29T04:13:06;21.40;77.70
42097;DHT22;27754;45.414;11.084;2023-07-29T04:15:33;21.40;77.80
42097;DHT22;27754;45.414;11.084;2023-07-29T04:18:00;21.40;78.10
42097;DHT22;27754;45.414;11.084;2023-07-29T04:20:27;21.50;78.20
42097;DHT22;27754;45.414;11.084;2023-07-29T04:22:54;21.50;77.80
42097;DHT22;27754;45.414;11.084;2023-07-29T04:25:21;21.60;77.30
42097;DHT22;27754;45.414;11.084;2023-07-29T04:27:48;21.70;77.40
42097;DHT22;27754;45.414;11.084;2023-07-29T04:30:15;21.80;77.30
42097;DHT22;27754;45.414;11.084;2023-07-29T04:32:42;22.20;76.10
42097;DHT22;27754;45.414;11.084;2023-07-29T04:35:11;22.40;75.10
42097;DHT22;27754;45.414;11.084;2023-07-29T04:37:38;22.80;74.50
42097;DHT22;27754;45.414;11.084;2023-07-29T04:40:06;23.00;73.00
42097;DHT22;27754;45.414;11.084;2023-07-29T04:42:33;23.00;72.80
42097;DHT22;27754;45.414;11.084;2023-07-29T04:45:01;22.80;73.40
42097;DHT22;27754;45.414;11.084;2023-07-29T04:47:31;22.60;73.60
42097;DHT22;27754;45.414;11.084;2023-07-29T04:49:58;22.40;73.90
42097;DHT22;27754;45.414;11.084;2023-07-29T04:52:25;22.40;74.10
42097;DHT22;27754;45.414;11.084;2023-07-29T04:54:52;22.30;74.50
42097;DHT22;27754;45.414;11.084;2023-07-29T04:57:19;22.20;74.90
42097;DHT22;27754;45.414;11.084;2023-07-29T04:59:46;22.30;74.90
42097;DHT22;27754;45.414;11.084;2023-07-29T05:02:14;22.50;74.30
42097;DHT22;27754;45.414;11.084;2023-07-29T05:04:42;22.70;75.30
42097;DHT22;27754;45.414;11.084;2023-07-29T05:07:09;22.60;75.60
42097;DHT22;27754;45.414;11.084;2023-07-29T05:09:36;22.70;73.60
42097;DHT22;27754;45.414;11.084;2023-07-29T05:12:03;22.80;74.10
42097;DHT22;27754;45.414;11.084;2023-07-29T05:14:30;22.70;73.10
42097;DHT22;27754;45.414;11.084;2023-07-29T05:16:57;22.90;72.60
42097;DHT22;27754;45.414;11.084;2023-07-29T05:19:24;23.10;72.80
42097;DHT22;27754;45.414;11.084;2023-07-29T05:21:51;23.40;72.10
42097;DHT22;27754;45.414;11.084;2023-07-29T05:24:18;23.80;71.10
42097;DHT22;27754;45.414;11.084;2023-07-29T05:26:45;24.30;70.10
42097;DHT22;27754;45.414;11.084;2023-07-29T05:29:12;24.50;69.20
42097;DHT22;27754;45.414;11.084;2023-07-29T05:31:39;24.50;69.10
42097;DHT22;27754;45.414;11.084;2023-07-29T05:34:07;24.70;70.00
42097;DHT22;27754;45.414;11.084;2023-07-29T05:36:35;24.80;69.60
42097;DHT22;27754;45.414;11.084;2023-07-29T05:39:03;24.80;69.30
42097;DHT22;27754;45.414;11.084;2023-07-29T05:41:30;24.90;68.70
42097;DHT22;27754;45.414;11.084;2023-07-29T05:43:57;25.10;68.10
42097;DHT22;27754;45.414;11.084;2023-07-29T05:46:25;25.30;66.90
42097;DHT22;27754;45.414;11.084;2023-07-29T05:48:52;25.60;65.90
42097;DHT22;27754;45.414;11.084;2023-07-29T05:51:19;25.80;65.10
42097;DHT22;27754;45.414;11.084;2023-07-29T05:53:46;25.60;65.80
42097;DHT22;27754;45.414;11.084;2023-07-29T05:56:13;25.50;66.50
42097;DHT22;27754;45.414;11.084;2023-07-29T05:58:40;25.70;66.10
42097;DHT22;27754;45.414;11.084;2023-07-29T06:01:07;25.80;65.70
42097;DHT22;27754;45.414;11.084;2023-07-29T06:03:34;25.90;64.50
42097;DHT22;27754;45.414;11.084;2023-07-29T06:06:01;26.20;64.70
42097;DHT22;27754;45.414;11.084;2023-07-29T06:08:28;26.50;64.70
42097;DHT22;27754;45.414;11.084;2023-07-29T06:10:56;26.60;64.70
42097;DHT22;27754;45.414;11.084;2023-07-29T06:13:23;26.70;63.10
42097;DHT22;27754;45.414;11.084;2023-07-29T06:15:50;26.80;63.90
42097;DHT22;27754;45.414;11.084;2023-07-29T06:18:17;27.10;62.60
42097;DHT22;27754;45.414;11.084;2023-07-29T06:20:44;27.00;62.10
42097;DHT22;27754;45.414;11.084;2023-07-29T06:23:11;27.30;62.20
42097;DHT22;27754;45.414;11.084;2023-07-29T06:25:39;27.40;60.50
42097;DHT22;27754;45.414;11.084;2023-07-29T06:28:06;27.60;61.70
42097;DHT22;27754;45.414;11.084;2023-07-29T06:30:32;27.90;61.10
42097;DHT22;27754;45.414;11.084;2023-07-29T06:32:59;27.90;60.30
42097;DHT22;27754;45.414;11.084;2023-07-29T06:35:26;28.20;59.90
42097;DHT22;27754;45.414;11.084;2023-07-29T06:37:53;28.20;59.80
42097;DHT22;27754;45.414;11.084;2023-07-29T06:40:20;28.30;60.20
42097;DHT22;27754;45.414;11.084;2023-07-29T06:42:47;28.10;60.60
42097;DHT22;27754;45.414;11.084;2023-07-29T06:45:14;28.30;59.80
42097;DHT22;27754;45.414;11.084;2023-07-29T06:47:42;28.30;60.20
42097;DHT22;27754;45.414;11.084;2023-07-29T06:50:09;28.50;59.90
42097;DHT22;27754;45.414;11.084;2023-07-29T06:52:36;28.60;60.40
42097;DHT22;27754;45.414;11.084;2023-07-29T06:55:05;28.60;59.60
42097;DHT22;27754;45.414;11.084;2023-07-29T06:57:32;28.70;61.00
42097;DHT22;27754;45.414;11.084;2023-07-29T06:59:59;28.80;59.00
42097;DHT22;27754;45.414;11.084;2023-07-29T07:02:26;28.80;60.10
42097;DHT22;27754;45.414;11.084;2023-07-29T07:04:53;28.90;60.70
42097;DHT22;27754;45.414;11.084;2023-07-29T07:07:20;28.90;60.90
42097;DHT22;27754;45.414;11.084;2023-07-29T07:09:47;29.00;59.70
42097;DHT22;27754;45.414;11.084;2023-07-29T07:12:14;28.90;59.60
42097;DHT22;27754;45.414;11.084;2023-07-29T07:14:41;29.00;59.80
42097;DHT22;27754;45.414;11.084;2023-07-29T07:17:08;29.30;59.20
42097;DHT22;27754;45.414;11.084;2023-07-29T07:19:39;29.10;60.20
42097;DHT22;27754;45.414;11.084;2023-07-29T07:22:06;29.10;60.60
42097;DHT22;27754;45.414;11.084;2023-07-29T07:24:33;29.00;61.80
42097;DHT22;27754;45.414;11.084;2023-07-29T07:27:00;29.30;60.40
42097;DHT22;27754;45.414;11.084;2023-07-29T07:29:27;29.60;61.00
42097;DHT22;27754;45.414;11.084;2023-07-29T07:31:54;29.80;59.90
42097;DHT22;27754;45.414;11.084;2023-07-29T07:34:21;29.60;59.90
42097;DHT22;27754;45.414;11.084;2023-07-29T07:36:49;29.40;60.60
42097;DHT22;27754;45.414;11.084;2023-07-29T07:39:16;29.20;61.20
42097;DHT22;27754;45.414;11.084;2023-07-29T07:41:43;29.40;60.70
42097;DHT22;27754;45.414;11.084;2023-07-29T07:44:10;29.60;60.70
42097;DHT22;27754;45.414;11.084;2023-07-29T07:46:39;29.40;61.80
42097;DHT22;27754;45.414;11.084;2023-07-29T07:49:07;29.60;60.70
42097;DHT22;27754;45.414;11.084;2023-07-29T07:51:33;30.00;61.30
42097;DHT22;27754;45.414;11.084;2023-07-29T07:54:00;30.00;60.00
42097;DHT22;27754;45.414;11.084;2023-07-29T07:56:27;30.30;59.80
42097;DHT22;27754;45.414;11.084;2023-07-29T07:58:54;30.30;59.60
42097;DHT22;27754;45.414;11.084;2023-07-29T08:01:21;30.40;59.80
42097;DHT22;27754;45.414;11.084;2023-07-29T08:03:48;30.40;59.90
42097;DHT22;27754;45.414;11.084;2023-07-29T08:06:15;30.30;59.60
42097;DHT22;27754;45.414;11.084;2023-07-29T08:08:42;30.50;58.80
42097;DHT22;27754;45.414;11.084;2023-07-29T08:11:09;30.30;60.10
42097;DHT22;27754;45.414;11.084;2023-07-29T08:13:36;30.40;60.70
42097;DHT22;27754;45.414;11.084;2023-07-29T08:16:03;30.40;60.00
42097;DHT22;27754;45.414;11.084;2023-07-29T08:18:30;30.50;58.70
42097;DHT22;27754;45.414;11.084;2023-07-29T08:21:00;30.40;59.20
42097;DHT22;27754;45.414;11.084;2023-07-29T08:23:33;30.40;59.80
42097;DHT22;27754;45.414;11.084;2023-07-29T08:26:03;30.30;61.00
42097;DHT22;27754;45.414;11.084;2023-07-29T08:28:37;30.60;59.20
42097;DHT22;27754;45.414;11.084;2023-07-29T08:31:05;30.40;60.80
42097;DHT22;27754;45.414;11.084;2023-07-29T08:33:33;30.40;59.80
42097;DHT22;27754;45.414;11.084;2023-07-29T08:36:01;30.30;59.20
42097;DHT22;27754;45.414;11.084;2023-07-29T08:38:28;30.10;59.20
42097;DHT22;27754;45.414;11.084;2023-07-29T08:41:14;30.40;59.30
42097;DHT22;27754;45.414;11.084;2023-07-29T08:44:13;30.50;59.20
42097;DHT22;27754;45.414;11.084;2023-07-29T08:46:42;30.60;59.30
42097;DHT22;27754;45.414;11.084;2023-07-29T08:49:12;30.90;60.40
42097;DHT22;27754;45.414;11.084;2023-07-29T08:51:42;31.00;59.90
42097;DHT22;27754;45.414;11.084;2023-07-29T08:54:10;31.30;58.40
42097;DHT22;27754;45.414;11.084;2023-07-29T08:56:38;31.00;57.10
42097;DHT22;27754;45.414;11.084;2023-07-29T08:59:05;30.40;58.90
42097;DHT22;27754;45.414;11.084;2023-07-29T09:01:33;30.70;58.40
42097;DHT22;27754;45.414;11.084;2023-07-29T09:04:00;30.80;58.30
42097;DHT22;27754;45.414;11.084;2023-07-29T09:06:27;31.30;57.20
42097;DHT22;27754;45.414;11.084;2023-07-29T09:08:54;31.10;56.80
42097;DHT22;27754;45.414;11.084;2023-07-29T09:11:25;30.80;57.80
42097;DHT22;27754;45.414;11.084;2023-07-29T09:13:52;30.90;58.50
42097;DHT22;27754;45.414;11.084;2023-07-29T09:16:20;30.90;58.20
42097;DHT22;27754;45.414;11.084;2023-07-29T09:18:49;31.00;58.80
42097;DHT22;27754;45.414;11.084;2023-07-29T09:21:25;31.10;58.60
42097;DHT22;27754;45.414;11.084;2023-07-29T09:23:54;30.80;59.90
42097;DHT22;27754;45.414;11.084;2023-07-29T09:26:28;31.00;59.30
42097;DHT22;27754;45.414;11.084;2023-07-29T09:28:57;31.10;59.10
42097;DHT22;27754;45.414;11.084;2023-07-29T09:31:25;30.70;59.30
42097;DHT22;27754;45.414;11.084;2023-07-29T09:33:57;30.80;59.30
42097;DHT22;27754;45.414;11.084;2023-07-29T09:36:25;30.80;58.50
42097;DHT22;27754;45.414;11.084;2023-07-29T09:38:57;30.70;58.70
42097;DHT22;27754;45.414;11.084;2023-07-29T09:41:28;31.00;57.80
42097;DHT22;27754;45.414;11.084;2023-07-29T09:43:59;31.20;58.70
42097;DHT22;27754;45.414;11.084;2023-07-29T09:46:37;31.10;58.20
42097;DHT22;27754;45.414;11.084;2023-07-29T09:49:07;31.30;56.90
42097;DHT22;27754;45.414;11.084;2023-07-29T09:51:38;31.40;56.20
42097;DHT22;27754;45.414;11.084;2023-07-29T09:54:07;31.20;56.80
42097;DHT22;27754;45.414;11.084;2023-07-29T09:56:36;31.10;57.10
42097;DHT22;27754;45.414;11.084;2023-07-29T09:59:05;31.00;57.50
42097;DHT22;27754;45.414;11.084;2023-07-29T10:01:33;30.90;57.70
42097;DHT22;27754;45.414;11.084;2023-07-29T10:04:03;30.70;58.00
42097;DHT22;27754;45.414;11.084;2023-07-29T10:06:30;30.20;58.90
42097;DHT22;27754;45.414;11.084;2023-07-29T10:08:59;29.80;60.40
42097;DHT22;27754;45.414;11.084;2023-07-29T10:11:27;29.90;60.50
42097;DHT22;27754;45.414;11.084;2023-07-29T10:13:55;30.10;60.00
42097;DHT22;27754;45.414;11.084;2023-07-29T10:16:41;30.30;59.70
42097;DHT22;27754;45.414;11.084;2023-07-29T10:19:09;30.30;58.50
42097;DHT22;27754;45.414;11.084;2023-07-29T10:21:38;30.30;59.10
42097;DHT22;27754;45.414;11.084;2023-07-29T10:24:11;30.50;58.70
42097;DHT22;27754;45.414;11.084;2023-07-29T10:26:40;30.70;59.40
42097;DHT22;27754;45.414;11.084;2023-07-29T10:29:12;30.90;59.00
42097;DHT22;27754;45.414;11.084;2023-07-29T10:31:43;30.90;58.70
42097;DHT22;27754;45.414;11.084;2023-07-29T10:34:11;30.70;58.80
42097;DHT22;27754;45.414;11.084;2023-07-29T10:36:40;30.80;58.90
42097;DHT22;27754;45.414;11.084;2023-07-29T10:39:07;30.80;57.60
42097;DHT22;27754;45.414;11.084;2023-07-29T10:47:15;30.90;56.30
42097;DHT22;27754;45.414;11.084;2023-07-29T10:49:46;30.80;57.70
42097;DHT22;27754;45.414;11.084;2023-07-29T10:52:15;30.90;57.90
42097;DHT22;27754;45.414;11.084;2023-07-29T10:54:45;31.00;57.70
42097;DHT22;27754;45.414;11.084;2023-07-29T10:57:13;31.10;59.20
42097;DHT22;27754;45.414;11.084;2023-07-29T10:59:53;31.30;57.60
42097;DHT22;27754;45.414;11.084;2023-07-29T11:02:37;31.30;57.40
42097;DHT22;27754;45.414;11.084;2023-07-29T11:05:25;31.50;57.60
42097;DHT22;27754;45.414;11.084;2023-07-29T11:07:53;31.40;57.90
42097;DHT22;27754;45.414;11.084;2023-07-29T11:10:21;31.60;56.70
42097;DHT22;27754;45.414;11.084;2023-07-29T11:12:49;31.40;56.70
42097;DHT22;27754;45.414;11.084;2023-07-29T11:15:25;31.50;57.40
42097;DHT22;27754;45.414;11.084;2023-07-29T11:17:58;31.40;57.90
42097;DHT22;27754;45.414;11.084;2023-07-29T11:20:27;31.50;58.20
42097;DHT22;27754;45.414;11.084;2023-07-29T11:22:56;31.60;57.50
42097;DHT22;27754;45.414;11.084;2023-07-29T11:25:24;31.70;57.30
42097;DHT22;27754;45.414;11.084;2023-07-29T11:27:53;31.90;56.90
42097;DHT22;27754;45.414;11.084;2023-07-29T11:30:21;32.00;55.90
42097;DHT22;27754;45.414;11.084;2023-07-29T11:32:49;31.80;55.80
42097;DHT22;27754;45.414;11.084;2023-07-29T11:35:17;31.70;57.00
42097;DHT22;27754;45.414;11.084;2023-07-29T11:37:47;31.50;56.70
42097;DHT22;27754;45.414;11.084;2023-07-29T11:40:19;31.50;56.90
42097;DHT22;27754;45.414;11.084;2023-07-29T11:42:47;31.60;56.20
42097;DHT22;27754;45.414;11.084;2023-07-29T11:45:15;31.70;58.20
42097;DHT22;27754;45.414;11.084;2023-07-29T11:47:44;31.80;56.90
42097;DHT22;27754;45.414;11.084;2023-07-29T11:50:13;32.00;55.80
42097;DHT22;27754;45.414;11.084;2023-07-29T11:52:44;32.00;57.70
42097;DHT22;27754;45.414;11.084;2023-07-29T11:55:13;32.30;55.40
42097;DHT22;27754;45.414;11.084;2023-07-29T11:57:42;32.50;54.60
42097;DHT22;27754;45.414;11.084;2023-07-29T12:00:11;32.50;54.00
42097;DHT22;27754;45.414;11.084;2023-07-29T12:02:41;32.60;54.90
42097;DHT22;27754;45.414;11.084;2023-07-29T12:05:09;32.40;55.90
42097;DHT22;27754;45.414;11.084;2023-07-29T12:07:40;32.30;57.20
42097;DHT22;27754;45.414;11.084;2023-07-29T12:10:12;32.00;55.70
42097;DHT22;27754;45.414;11.084;2023-07-29T12:12:49;32.20;56.60
42097;DHT22;27754;45.414;11.084;2023-07-29T12:15:27;32.50;55.80
42097;DHT22;27754;45.414;11.084;2023-07-29T12:17:55;32.40;55.50
42097;DHT22;27754;45.414;11.084;2023-07-29T12:20:24;32.00;56.40
42097;DHT22;27754;45.414;11.084;2023-07-29T12:22:59;32.00;56.00
42097;DHT22;27754;45.414;11.084;2023-07-29T12:25:28;32.00;56.30
42097;DHT22;27754;45.414;11.084;2023-07-29T12:27:55;32.10;56.20
42097;DHT22;27754;45.414;11.084;2023-07-29T12:30:23;32.30;56.80
42097;DHT22;27754;45.414;11.084;2023-07-29T12:32:52;32.20;54.80
42097;DHT22;27754;45.414;11.084;2023-07-29T12:35:19;32.10;55.60
42097;DHT22;27754;45.414;11.084;2023-07-29T12:37:46;32.40;56.20
42097;DHT22;27754;45.414;11.084;2023-07-29T12:40:26;32.30;55.60
42097;DHT22;27754;45.414;11.084;2023-07-29T12:42:54;32.40;55.80
42097;DHT22;27754;45.414;11.084;2023-07-29T12:45:22;32.60;54.00
42097;DHT22;27754;45.414;11.084;2023-07-29T12:47:56;32.80;54.50
42097;DHT22;27754;45.414;11.084;2023-07-29T12:50:23;32.80;53.80
42097;DHT22;27754;45.414;11.084;2023-07-29T12:52:53;32.90;53.90
42097;DHT22;27754;45.414;11.084;2023-07-29T12:55:20;33.20;53.70
42097;DHT22;27754;45.414;11.084;2023-07-29T12:57:50;33.20;53.40
42097;DHT22;27754;45.414;11.084;2023-07-29T13:00:17;33.00;53.60
42097;DHT22;27754;45.414;11.084;2023-07-29T13:02:45;32.90;55.00
42097;DHT22;27754;45.414;11.084;2023-07-29T13:05:15;33.20;53.40
42097;DHT22;27754;45.414;11.084;2023-07-29T13:07:42;33.10;52.60
42097;DHT22;27754;45.414;11.084;2023-07-29T13:10:10;32.90;53.20
42097;DHT22;27754;45.414;11.084;2023-07-29T13:12:37;33.00;53.60
42097;DHT22;27754;45.414;11.084;2023-07-29T13:15:04;32.90;53.80
42097;DHT22;27754;45.414;11.084;2023-07-29T13:17:33;33.00;53.20
42097;DHT22;27754;45.414;11.084;2023-07-29T13:20:00;32.90;53.10
42097;DHT22;27754;45.414;11.084;2023-07-29T13:22:27;33.00;53.10
42097;DHT22;27754;45.414;11.084;2023-07-29T13:24:54;33.20;53.90
42097;DHT22;27754;45.414;11.084;2023-07-29T13:27:21;33.10;53.20
42097;DHT22;27754;45.414;11.084;2023-07-29T13:29:49;33.10;54.00
42097;DHT22;27754;45.414;11.084;2023-07-29T13:32:16;33.20;52.80
42097;DHT22;27754;45.414;11.084;2023-07-29T13:34:43;32.90;53.10
42097;DHT22;27754;45.414;11.084;2023-07-29T13:37:10;32.80;53.80
42097;DHT22;27754;45.414;11.084;2023-07-29T13:39:37;32.70;53.40
42097;DHT22;27754;45.414;11.084;2023-07-29T13:42:04;32.90;53.20
42097;DHT22;27754;45.414;11.084;2023-07-29T13:44:31;32.90;52.90
42097;DHT22;27754;45.414;11.084;2023-07-29T13:46:58;33.20;52.90
42097;DHT22;27754;45.414;11.084;2023-07-29T13:49:25;32.80;52.30
42097;DHT22;27754;45.414;11.084;2023-07-29T13:51:52;32.60;53.30
42097;DHT22;27754;45.414;11.084;2023-07-29T13:54:19;32.50;54.10
42097;DHT22;27754;45.414;11.084;2023-07-29T13:56:46;32.40;53.90
42097;DHT22;27754;45.414;11.084;2023-07-29T13:59:13;32.40;54.30
42097;DHT22;27754;45.414;11.084;2023-07-29T14:01:39;32.40;54.70
42097;DHT22;27754;45.414;11.084;2023-07-29T14:04:07;32.30;55.70
42097;DHT22;27754;45.414;11.084;2023-07-29T14:06:34;32.00;55.00
42097;DHT22;27754;45.414;11.084;2023-07-29T14:09:12;31.90;55.30
42097;DHT22;27754;45.414;11.084;2023-07-29T14:11:39;32.10;54.60
42097;DHT22;27754;45.414;11.084;2023-07-29T14:14:07;32.30;54.40
42097;DHT22;27754;45.414;11.084;2023-07-29T14:16:34;32.60;53.10
42097;DHT22;27754;45.414;11.084;2023-07-29T14:19:02;32.20;54.70
42097;DHT22;27754;45.414;11.084;2023-07-29T14:21:29;32.10;55.10
42097;DHT22;27754;45.414;11.084;2023-07-29T14:23:56;32.30;55.60
42097;DHT22;27754;45.414;11.084;2023-07-29T14:26:23;32.30;55.40
42097;DHT22;27754;45.414;11.084;2023-07-29T14:28:50;32.50;55.70
42097;DHT22;27754;45.414;11.084;2023-07-29T14:31:17;32.50;54.70
42097;DHT22;27754;45.414;11.084;2023-07-29T14:33:45;32.40;53.60
42097;DHT22;27754;45.414;11.084;2023-07-29T14:36:12;32.30;53.60
42097;DHT22;27754;45.414;11.084;2023-07-29T14:38:39;31.80;54.30
42097;DHT22;27754;45.414;11.084;2023-07-29T14:41:06;31.80;55.50
42097;DHT22;27754;45.414;11.084;2023-07-29T14:43:33;31.90;55.30
42097;DHT22;27754;45.414;11.084;2023-07-29T14:46:01;32.00;55.90
42097;DHT22;27754;45.414;11.084;2023-07-29T14:48:29;32.10;55.40
42097;DHT22;27754;45.414;11.084;2023-07-29T14:50:56;32.10;55.60
42097;DHT22;27754;45.414;11.084;2023-07-29T14:53:30;32.10;54.60
42097;DHT22;27754;45.414;11.084;2023-07-29T14:55:57;32.20;54.60
42097;DHT22;27754;45.414;11.084;2023-07-29T14:58:24;32.30;55.40
42097;DHT22;27754;45.414;11.084;2023-07-29T15:00:52;32.30;55.00
42097;DHT22;27754;45.414;11.084;2023-07-29T15:03:19;32.30;55.00
42097;DHT22;27754;45.414;11.084;2023-07-29T15:05:46;32.40;54.60
42097;DHT22;27754;45.414;11.084;2023-07-29T15:08:14;32.60;54.80
42097;DHT22;27754;45.414;11.084;2023-07-29T15:10:45;32.50;54.10
42097;DHT22;27754;45.414;11.084;2023-07-29T15:13:13;32.50;54.80
42097;DHT22;27754;45.414;11.084;2023-07-29T15:15:49;32.70;53.60
42097;DHT22;27754;45.414;11.084;2023-07-29T15:18:17;32.40;53.60
42097;DHT22;27754;45.414;11.084;2023-07-29T15:20:44;32.30;54.30
42097;DHT22;27754;45.414;11.084;2023-07-29T15:23:12;32.30;54.70
42097;DHT22;27754;45.414;11.084;2023-07-29T15:25:38;32.20;55.30
42097;DHT22;27754;45.414;11.084;2023-07-29T15:28:05;32.30;55.20
42097;DHT22;27754;45.414;11.084;2023-07-29T15:30:35;32.30;54.90
42097;DHT22;27754;45.414;11.084;2023-07-29T15:33:03;32.40;55.20
42097;DHT22;27754;45.414;11.084;2023-07-29T15:35:37;32.40;55.30